sensor_id;sensor_type;location;lat;lon;timestamp;temperature;humidity
12893;DHT22;6514;48.606;9.222;2023-09-19T00:01:39;15.50;99.90
12893;DHT22;6514;48.606;9.222;2023-09-19T00:04:08;15.50;99.90
12893;DHT22;6514;48.606;9.222;2023-09-19T00:06:35;15.40;99.90
12893;DHT22;6514;48.606;9.222;2023-09-19T00:09:02;15.40;99.90
12893;DHT22;6514;48.606;9.222;2023-09-19T00:11:29;15.40;99.90
12893;DHT22;6514;48.606;9.222;2023-09-19T00:13:58;15.40;99.90
12893;DHT22;6514;48.606;9.222;2023-09-19T00:16:25;15.40;99.90
12893;DHT22;6514;48.606;9.222;2023-09-19T00:18:52;15.40;99.90
12893;DHT22;6514;48.606;9.222;2023-09-19T00:21:20;15.40;99.90
12893;DHT22;6514;48.606;9.222;2023-09-19T00:23:47;15.40;99.90
12893;DHT22;6514;48.606;9.222;2023-09-19T00:26:14;15.40;99.90
12893;DHT22;6514;48.606;9.222;2023-09-19T00:28:43;15.30;99.90
12893;DHT22;6514;48.606;9.222;2023-09-19T00:31:10;15.40;99.90
12893;DHT22;6514;48.606;9.222;2023-09-19T00:33:37;15.30;99.90
12893;DHT22;6514;48.606;9.222;2023-09-19T00:36:04;15.30;99.90
12893;DHT22;6514;48.606;9.222;2023-09-19T00:38:33;15.40;99.90
12893;DHT22;6514;48.606;9.222;2023-09-19T00:41:00;15.40;99.90
12893;DHT22;6514;48.606;9.222;2023-09-19T00:43:26;15.30;99.90
12893;DHT22;6514;48.606;9.222;2023-09-19T00:45:55;15.40;99.90
12893;DHT22;6514;48.606;9.222;2023-09-19T00:48:23;15.30;99.90
12893;DHT22;6514;48.606;9.222;2023-09-19T00:50:55;15.40;99.90
12893;DHT22;6514;48.606;9.222;2023-09-19T00:53:24;15.40;99.90
12893;DHT22;6514;48.606;9.222;2023-09-19T00:55:54;15.40;99.90
12893;DHT22;6514;48.606;9.222;2023-09-19T00:58:21;15.40;99.90
12893;DHT22;6514;48.606;9.222;2023-09-19T01:00:48;15.40;99.90
12893;DHT22;6514;48.606;9.222;2023-09-19T01:03:15;15.40;99.90
12893;DHT22;6514;48.606;9.222;2023-09-19T01:05:43;15.40;99.90
12893;DHT22;6514;48.606;9.222;2023-09-19T01:08:10;15.50;99.90
12893;DHT22;6514;48.606;9.222;2023-09-19T01:10:41;15.50;99.90
12893;DHT22;6514;48.606;9.222;2023-09-19T01:13:17;15.50;99.90
12893;DHT22;6514;48.606;9.222;2023-09-19T01:15:51;15.50;99.90
12893;DHT22;6514;48.606;9.222;2023-09-19T01:18:30;15.60;99.90
12893;DHT22;6514;48.606;9.222;2023-09-19T01:21:07;15.50;99.90
12893;DHT22;6514;48.606;9.222;2023-09-19T01:23:50;15.60;99.90
12893;DHT22;6514;48.606;9.222;2023-09-19T01:26:33;15.60;99.90
12893;DHT22;6514;48.606;9.222;2023-09-19T01:29:38;15.60;99.90
12893;DHT22;6514;48.606;9.222;2023-09-19T01:32:08;15.50;99.90
12893;DHT22;6514;48.606;9.222;2023-09-19T01:34:49;15.50;99.90
12893;DHT22;6514;48.606;9.222;2023-09-19T01:37:20;15.50;99.90
12893;DHT22;6514;48.606;9.222;2023-09-19T01:39:55;15.50;99.90
12893;DHT22;6514;48.606;9.222;2023-09-19T01:42:31;15.50;99.90
12893;DHT22;6514;48.606;9.222;2023-09-19T01:45:06;15.40;99.90
12893;DHT22;6514;48.606;9.222;2023-09-19T01:47:41;15.50;99.90
12893;DHT22;6514;48.606;9.222;2023-09-19T01:50:16;15.40;99.90
12893;DHT22;6514;48.606;9.222;2023-09-19T01:52:48;15.40;99.90
12893;DHT22;6514;48.606;9.222;2023-09-19T01:55:17;15.50;99.90
12893;DHT22;6514;48.606;9.222;2023-09-19T01:57:49;15.50;99.90
12893;DHT22;6514;48.606;9.222;2023-09-19T02:00:21;15.50;99.90
12893;DHT22;6514;48.606;9.222;2023-09-19T02:02:53;15.50;99.90
12893;DHT22;6514;48.606;9.222;2023-09-19T02:05:25;15.40;99.90
12893;DHT22;6514;48.606;9.222;2023-09-19T02:07:53;15.40;99.90
12893;DHT22;6514;48.606;9.222;2023-09-19T02:10:21;15.40;99.90
12893;DHT22;6514;48.606;9.222;2023-09-19T02:12:48;15.40;99.90
12893;DHT22;6514;48.606;9.222;2023-09-19T02:15:15;15.40;99.90
12893;DHT22;6514;48.606;9.222;2023-09-19T02:17:43;15.40;99.90
12893;DHT22;6514;48.606;9.222;2023-09-19T02:20:13;15.40;99.90
12893;DHT22;6514;48.606;9.222;2023-09-19T02:22:41;15.30;99.90
12893;DHT22;6514;48.606;9.222;2023-09-19T02:25:08;15.30;99.90
12893;DHT22;6514;48.606;9.222;2023-09-19T02:27:35;15.30;99.90
12893;DHT22;6514;48.606;9.222;2023-09-19T02:30:03;15.30;99.90
12893;DHT22;6514;48.606;9.222;2023-09-19T02:32:31;15.20;99.90
12893;DHT22;6514;48.606;9.222;2023-09-19T02:35:02;15.20;99.90
12893;DHT22;6514;48.606;9.222;2023-09-19T02:37:32;15.10;99.90
12893;DHT22;6514;48.606;9.222;2023-09-19T02:40:00;15.00;99.90
12893;DHT22;6514;48.606;9.222;2023-09-19T02:42:44;15.00;99.90
12893;DHT22;6514;48.606;9.222;2023-09-19T02:45:14;14.90;99.90
12893;DHT22;6514;48.606;9.222;2023-09-19T02:47:43;14.90;99.90
12893;DHT22;6514;48.606;9.222;2023-09-19T02:50:10;14.90;99.90
12893;DHT22;6514;48.606;9.222;2023-09-19T02:52:41;14.80;99.90
12893;DHT22;6514;48.606;9.222;2023-09-19T02:55:09;14.70;99.90
12893;DHT22;6514;48.606;9.222;2023-09-19T02:57:36;14.70;99.90
12893;DHT22;6514;48.606;9.222;2023-09-19T03:00:10;14.60;99.90
12893;DHT22;6514;48.606;9.222;2023-09-19T03:02:37;14.50;99.90
12893;DHT22;6514;48.606;9.222;2023-09-19T03:05:07;14.50;99.90
12893;DHT22;6514;48.606;9.222;2023-09-19T03:07:38;14.40;99.90
12893;DHT22;6514;48.606;9.222;2023-09-19T03:10:06;14.40;99.90
12893;DHT22;6514;48.606;9.222;2023-09-19T03:12:34;14.40;99.90
12893;DHT22;6514;48.606;9.222;2023-09-19T03:15:01;14.50;99.90
12893;DHT22;6514;48.606;9.222;2023-09-19T03:17:29;14.50;99.90
12893;DHT22;6514;48.606;9.222;2023-09-19T03:19:56;14.50;99.90
12893;DHT22;6514;48.606;9.222;2023-09-19T03:22:23;14.60;99.90
12893;DHT22;6514;48.606;9.222;2023-09-19T03:24:52;14.70;99.90
12893;DHT22;6514;48.606;9.222;2023-09-19T03:27:20;14.70;99.90
12893;DHT22;6514;48.606;9.222;2023-09-19T03:29:47;14.80;99.90
12893;DHT22;6514;48.606;9.222;2023-09-19T03:32:14;14.80;99.90
12893;DHT22;6514;48.606;9.222;2023-09-19T03:34:41;14.80;99.90
12893;DHT22;6514;48.606;9.222;2023-09-19T03:37:09;14.80;99.90
12893;DHT22;6514;48.606;9.222;2023-09-19T03:39:36;14.80;99.90
12893;DHT22;6514;48.606;9.222;2023-09-19T03:44:47;14.90;99.90
12893;DHT22;6514;48.606;9.222;2023-09-19T03:47:14;15.00;99.90
12893;DHT22;6514;48.606;9.222;2023-09-19T03:49:41;15.00;99.90
12893;DHT22;6514;48.606;9.222;2023-09-19T03:52:07;15.00;99.90
12893;DHT22;6514;48.606;9.222;2023-09-19T03:54:34;15.00;99.90
12893;DHT22;6514;48.606;9.222;2023-09-19T03:59:34;15.10;99.90
12893;DHT22;6514;48.606;9.222;2023-09-19T04:02:03;15.10;99.90
12893;DHT22;6514;48.606;9.222;2023-09-19T04:04:37;15.00;99.90
12893;DHT22;6514;48.606;9.222;2023-09-19T04:07:03;15.00;99.90
12893;DHT22;6514;48.606;9.222;2023-09-19T04:09:30;15.00;99.90
12893;DHT22;6514;48.606;9.222;2023-09-19T04:11:57;15.00;99.90
12893;DHT22;6514;48.606;9.222;2023-09-19T04:14:24;15.00;99.90
12893;DHT22;6514;48.606;9.222;2023-09-19T04:16:51;15.00;99.90
12893;DHT22;6514;48.606;9.222;2023-09-19T04:19:20;15.00;99.90
12893;DHT22;6514;48.606;9.222;2023-09-19T04:21:48;14.90;99.90
12893;DHT22;6514;48.606;9.222;2023-09-19T04:24:14;14.90;99.90
12893;DHT22;6514;48.606;9.222;2023-09-19T04:26:41;14.90;99.90
12893;DHT22;6514;48.606;9.222;2023-09-19T04:29:09;14.80;99.90
12893;DHT22;6514;48.606;9.222;2023-09-19T04:31:36;14.80;99.90
12893;DHT22;6514;48.606;9.222;2023-09-19T04:34:05;14.80;99.90
12893;DHT22;6514;48.606;9.222;2023-09-19T04:36:34;14.70;99.90
12893;DHT22;6514;48.606;9.222;2023-09-19T04:39:02;14.70;99.90
12893;DHT22;6514;48.606;9.222;2023-09-19T04:41:32;14.60;99.90
12893;DHT22;6514;48.606;9.222;2023-09-19T04:43:59;14.60;99.90
12893;DHT22;6514;48.606;9.222;2023-09-19T04:46:26;14.60;99.90
12893;DHT22;6514;48.606;9.222;2023-09-19T04:48:53;14.50;99.90
12893;DHT22;6514;48.606;9.222;2023-09-19T04:51:20;14.50;99.90
12893;DHT22;6514;48.606;9.222;2023-09-19T04:53:48;14.50;99.90
12893;DHT22;6514;48.606;9.222;2023-09-19T04:56:15;14.50;99.90
12893;DHT22;6514;48.606;9.222;2023-09-19T04:58:42;14.50;99.90
12893;DHT22;6514;48.606;9.222;2023-09-19T05:01:08;14.60;99.90
12893;DHT22;6514;48.606;9.222;2023-09-19T05:03:37;14.60;99.90
12893;DHT22;6514;48.606;9.222;2023-09-19T05:06:04;14.60;99.90
12893;DHT22;6514;48.606;9.222;2023-09-19T05:08:31;14.60;99.90
12893;DHT22;6514;48.606;9.222;2023-09-19T05:11:01;14.70;99.90
12893;DHT22;6514;48.606;9.222;2023-09-19T05:13:28;14.70;99.90
12893;DHT22;6514;48.606;9.222;2023-09-19T05:15:59;14.80;99.90
12893;DHT22;6514;48.606;9.222;2023-09-19T05:18:27;14.80;99.90
12893;DHT22;6514;48.606;9.222;2023-09-19T05:20:54;14.90;99.90
12893;DHT22;6514;48.606;9.222;2023-09-19T05:23:21;14.90;99.90
12893;DHT22;6514;48.606;9.222;2023-09-19T05:25:48;15.00;99.90
12893;DHT22;6514;48.606;9.222;2023-09-19T05:28:16;15.00;99.90
12893;DHT22;6514;48.606;9.222;2023-09-19T05:30:43;15.10;99.90
12893;DHT22;6514;48.606;9.222;2023-09-19T05:33:10;15.10;99.90
12893;DHT22;6514;48.606;9.222;2023-09-19T05:35:37;15.10;99.90
12893;DHT22;6514;48.606;9.222;2023-09-19T05:38:05;15.20;99.90
12893;DHT22;6514;48.606;9.222;2023-09-19T05:40:34;15.20;99.90
12893;DHT22;6514;48.606;9.222;2023-09-19T05:43:01;15.20;99.90
12893;DHT22;6514;48.606;9.222;2023-09-19T05:45:30;15.30;99.90
12893;DHT22;6514;48.606;9.222;2023-09-19T05:48:07;15.30;99.90
12893;DHT22;6514;48.606;9.222;2023-09-19T05:50:34;15.30;99.90
12893;DHT22;6514;48.606;9.222;2023-09-19T05:53:02;15.30;99.90
12893;DHT22;6514;48.606;9.222;2023-09-19T05:55:29;15.30;99.90
12893;DHT22;6514;48.606;9.222;2023-09-19T05:57:56;15.40;99.90
12893;DHT22;6514;48.606;9.222;2023-09-19T06:00:24;15.40;99.90
12893;DHT22;6514;48.606;9.222;2023-09-19T06:02:55;15.40;99.90
12893;DHT22;6514;48.606;9.222;2023-09-19T06:05:23;15.50;99.90
12893;DHT22;6514;48.606;9.222;2023-09-19T06:07:50;15.50;99.90
12893;DHT22;6514;48.606;9.222;2023-09-19T06:10:17;15.50;99.90
12893;DHT22;6514;48.606;9.222;2023-09-19T06:12:46;15.60;99.90
12893;DHT22;6514;48.606;9.222;2023-09-19T06:15:14;15.60;99.90
12893;DHT22;6514;48.606;9.222;2023-09-19T06:17:42;15.60;99.90
12893;DHT22;6514;48.606;9.222;2023-09-19T06:20:11;15.50;99.90
12893;DHT22;6514;48.606;9.222;2023-09-19T06:22:43;15.50;99.90
12893;DHT22;6514;48.606;9.222;2023-09-19T06:25:11;15.50;99.90
12893;DHT22;6514;48.606;9.222;2023-09-19T06:27:38;15.50;99.90
12893;DHT22;6514;48.606;9.222;2023-09-19T06:30:09;15.40;99.90
12893;DHT22;6514;48.606;9.222;2023-09-19T06:32:38;15.40;99.90
12893;DHT22;6514;48.606;9.222;2023-09-19T06:35:06;15.40;99.90
12893;DHT22;6514;48.606;9.222;2023-09-19T06:37:35;15.40;99.90
12893;DHT22;6514;48.606;9.222;2023-09-19T06:40:06;15.40;99.90
12893;DHT22;6514;48.606;9.222;2023-09-19T06:42:34;15.50;99.90
12893;DHT22;6514;48.606;9.222;2023-09-19T06:45:03;15.50;99.90
12893;DHT22;6514;48.606;9.222;2023-09-19T06:47:31;15.60;99.90
12893;DHT22;6514;48.606;9.222;2023-09-19T06:49:57;15.60;99.90
12893;DHT22;6514;48.606;9.222;2023-09-19T06:52:24;15.70;99.90
12893;DHT22;6514;48.606;9.222;2023-09-19T06:54:52;15.80;99.90
12893;DHT22;6514;48.606;9.222;2023-09-19T06:57:19;16.00;99.90
12893;DHT22;6514;48.606;9.222;2023-09-19T06:59:46;16.20;99.90
12893;DHT22;6514;48.606;9.222;2023-09-19T07:02:13;16.30;99.90
12893;DHT22;6514;48.606;9.222;2023-09-19T07:04:40;16.40;99.90
12893;DHT22;6514;48.606;9.222;2023-09-19T07:07:07;16.50;99.90
12893;DHT22;6514;48.606;9.222;2023-09-19T07:09:34;16.60;99.90
12893;DHT22;6514;48.606;9.222;2023-09-19T07:12:03;16.70;99.90
12893;DHT22;6514;48.606;9.222;2023-09-19T07:14:29;16.90;99.90
12893;DHT22;6514;48.606;9.222;2023-09-19T07:16:56;17.20;99.90
12893;DHT22;6514;48.606;9.222;2023-09-19T07:19:25;17.30;99.90
12893;DHT22;6514;48.606;9.222;2023-09-19T07:21:54;17.50;99.90
12893;DHT22;6514;48.606;9.222;2023-09-19T07:24:21;17.70;99.90
12893;DHT22;6514;48.606;9.222;2023-09-19T07:26:49;17.90;99.90
12893;DHT22;6514;48.606;9.222;2023-09-19T07:29:17;18.10;99.90
12893;DHT22;6514;48.606;9.222;2023-09-19T07:31:44;18.30;99.90
12893;DHT22;6514;48.606;9.222;2023-09-19T07:34:12;18.60;99.90
12893;DHT22;6514;48.606;9.222;2023-09-19T07:36:40;18.80;99.90
12893;DHT22;6514;48.606;9.222;2023-09-19T07:39:08;18.80;99.90
12893;DHT22;6514;48.606;9.222;2023-09-19T07:41:35;18.90;99.90
12893;DHT22;6514;48.606;9.222;2023-09-19T07:44:03;18.90;99.90
12893;DHT22;6514;48.606;9.222;2023-09-19T07:46:31;19.10;99.90
12893;DHT22;6514;48.606;9.222;2023-09-19T07:48:59;19.30;99.90
12893;DHT22;6514;48.606;9.222;2023-09-19T07:51:26;19.50;99.90
12893;DHT22;6514;48.606;9.222;2023-09-19T07:53:53;19.70;99.90
12893;DHT22;6514;48.606;9.222;2023-09-19T07:56:20;19.90;99.90
12893;DHT22;6514;48.606;9.222;2023-09-19T07:58:48;20.10;99.90
12893;DHT22;6514;48.606;9.222;2023-09-19T08:01:15;19.90;99.90
12893;DHT22;6514;48.606;9.222;2023-09-19T08:03:43;19.80;99.90
12893;DHT22;6514;48.606;9.222;2023-09-19T08:06:11;20.00;99.90
12893;DHT22;6514;48.606;9.222;2023-09-19T08:08:38;20.10;99.90
12893;DHT22;6514;48.606;9.222;2023-09-19T08:11:06;19.90;99.90
12893;DHT22;6514;48.606;9.222;2023-09-19T08:13:37;20.20;99.90
12893;DHT22;6514;48.606;9.222;2023-09-19T08:16:06;20.10;99.90
12893;DHT22;6514;48.606;9.222;2023-09-19T08:18:33;20.20;99.90
12893;DHT22;6514;48.606;9.222;2023-09-19T08:21:01;20.40;99.90
12893;DHT22;6514;48.606;9.222;2023-09-19T08:23:29;20.90;99.90
12893;DHT22;6514;48.606;9.222;2023-09-19T08:25:58;21.30;99.90
12893;DHT22;6514;48.606;9.222;2023-09-19T08:28:28;21.40;99.90
12893;DHT22;6514;48.606;9.222;2023-09-19T08:30:55;21.50;99.90
12893;DHT22;6514;48.606;9.222;2023-09-19T08:33:23;21.30;99.90
12893;DHT22;6514;48.606;9.222;2023-09-19T08:35:50;21.30;99.90
12893;DHT22;6514;48.606;9.222;2023-09-19T08:38:18;21.30;99.90
12893;DHT22;6514;48.606;9.222;2023-09-19T08:40:45;21.20;99.90
12893;DHT22;6514;48.606;9.222;2023-09-19T08:43:12;21.30;99.90
12893;DHT22;6514;48.606;9.222;2023-09-19T08:45:39;21.30;99.90
12893;DHT22;6514;48.606;9.222;2023-09-19T08:48:19;21.20;99.90
12893;DHT22;6514;48.606;9.222;2023-09-19T08:50:49;21.00;99.90
12893;DHT22;6514;48.606;9.222;2023-09-19T08:53:26;20.90;99.90
12893;DHT22;6514;48.606;9.222;2023-09-19T08:55:55;20.90;99.90
12893;DHT22;6514;48.606;9.222;2023-09-19T08:58:26;21.10;99.90
12893;DHT22;6514;48.606;9.222;2023-09-19T09:00:55;21.20;99.90
12893;DHT22;6514;48.606;9.222;2023-09-19T09:03:23;21.10;99.90
12893;DHT22;6514;48.606;9.222;2023-09-19T09:05:51;21.10;99.90
12893;DHT22;6514;48.606;9.222;2023-09-19T09:08:20;21.00;99.90
12893;DHT22;6514;48.606;9.222;2023-09-19T09:10:47;20.60;99.90
12893;DHT22;6514;48.606;9.222;2023-09-19T09:13:14;20.60;99.90
12893;DHT22;6514;48.606;9.222;2023-09-19T09:15:41;20.90;99.90
12893;DHT22;6514;48.606;9.222;2023-09-19T09:18:10;20.90;99.90
12893;DHT22;6514;48.606;9.222;2023-09-19T09:20:37;20.70;99.90
12893;DHT22;6514;48.606;9.222;2023-09-19T09:23:04;20.90;99.90
12893;DHT22;6514;48.606;9.222;2023-09-19T09:25:49;20.90;99.90
12893;DHT22;6514;48.606;9.222;2023-09-19T09:28:21;20.80;99.90
12893;DHT22;6514;48.606;9.222;2023-09-19T09:30:48;20.60;99.90
12893;DHT22;6514;48.606;9.222;2023-09-19T09:33:15;20.50;99.90
12893;DHT22;6514;48.606;9.222;2023-09-19T09:35:51;20.60;99.90
12893;DHT22;6514;48.606;9.222;2023-09-19T09:38:23;21.00;99.90
12893;DHT22;6514;48.606;9.222;2023-09-19T09:40:55;21.60;99.90
12893;DHT22;6514;48.606;9.222;2023-09-19T09:43:29;22.20;99.90
12893;DHT22;6514;48.606;9.222;2023-09-19T09:46:12;23.00;99.90
12893;DHT22;6514;48.606;9.222;2023-09-19T09:49:01;23.80;99.90
12893;DHT22;6514;48.606;9.222;2023-09-19T09:51:58;24.70;99.90
12893;DHT22;6514;48.606;9.222;2023-09-19T09:54:27;25.10;99.90
12893;DHT22;6514;48.606;9.222;2023-09-19T09:57:01;25.20;99.90
12893;DHT22;6514;48.606;9.222;2023-09-19T09:59:50;25.10;99.90
12893;DHT22;6514;48.606;9.222;2023-09-19T10:02:19;25.00;99.90
12893;DHT22;6514;48.606;9.222;2023-09-19T10:04:51;25.10;99.90
12893;DHT22;6514;48.606;9.222;2023-09-19T10:07:28;25.20;99.90
12893;DHT22;6514;48.606;9.222;2023-09-19T10:09:59;25.40;99.90
12893;DHT22;6514;48.606;9.222;2023-09-19T10:12:39;25.40;99.90
12893;DHT22;6514;48.606;9.222;2023-09-19T10:15:11;25.70;99.90
12893;DHT22;6514;48.606;9.222;2023-09-19T10:17:43;25.90;99.90
12893;DHT22;6514;48.606;9.222;2023-09-19T10:20:16;26.20;99.90
12893;DHT22;6514;48.606;9.222;2023-09-19T10:23:06;26.50;99.90
12893;DHT22;6514;48.606;9.222;2023-09-19T10:25:37;26.70;99.90
12893;DHT22;6514;48.606;9.222;2023-09-19T10:28:07;26.50;99.90
12893;DHT22;6514;48.606;9.222;2023-09-19T10:30:37;26.30;99.90
12893;DHT22;6514;48.606;9.222;2023-09-19T10:33:09;25.90;99.90
12893;DHT22;6514;48.606;9.222;2023-09-19T10:35:38;25.60;99.90
12893;DHT22;6514;48.606;9.222;2023-09-19T10:38:07;25.60;99.90
12893;DHT22;6514;48.606;9.222;2023-09-19T10:40:37;26.10;99.90
12893;DHT22;6514;48.606;9.222;2023-09-19T10:43:12;26.50;99.90
12893;DHT22;6514;48.606;9.222;2023-09-19T10:45:40;26.90;99.90
12893;DHT22;6514;48.606;9.222;2023-09-19T10:48:07;27.00;99.90
12893;DHT22;6514;48.606;9.222;2023-09-19T10:50:36;27.20;99.90
12893;DHT22;6514;48.606;9.222;2023-09-19T10:53:12;26.60;99.90
12893;DHT22;6514;48.606;9.222;2023-09-19T10:55:41;25.70;99.90
12893;DHT22;6514;48.606;9.222;2023-09-19T10:58:10;24.80;99.90
12893;DHT22;6514;48.606;9.222;2023-09-19T11:00:51;24.10;99.90
12893;DHT22;6514;48.606;9.222;2023-09-19T11:03:20;23.40;99.90
12893;DHT22;6514;48.606;9.222;2023-09-19T11:06:09;22.90;99.90
12893;DHT22;6514;48.606;9.222;2023-09-19T11:08:52;22.60;99.90
12893;DHT22;6514;48.606;9.222;2023-09-19T11:11:45;22.80;99.90
12893;DHT22;6514;48.606;9.222;2023-09-19T11:14:38;23.30;99.90
12893;DHT22;6514;48.606;9.222;2023-09-19T11:17:34;23.90;99.90
12893;DHT22;6514;48.606;9.222;2023-09-19T11:20:22;24.30;99.90
12893;DHT22;6514;48.606;9.222;2023-09-19T11:23:20;24.70;99.90
12893;DHT22;6514;48.606;9.222;2023-09-19T11:25:51;25.00;99.90
12893;DHT22;6514;48.606;9.222;2023-09-19T11:28:35;25.40;99.90
12893;DHT22;6514;48.606;9.222;2023-09-19T11:34:39;25.70;99.90
12893;DHT22;6514;48.606;9.222;2023-09-19T11:40:11;25.60;99.90
12893;DHT22;6514;48.606;9.222;2023-09-19T11:42:42;25.40;99.90
12893;DHT22;6514;48.606;9.222;2023-09-19T11:48:12;24.50;99.90
12893;DHT22;6514;48.606;9.222;2023-09-19T11:50:43;24.00;99.90
12893;DHT22;6514;48.606;9.222;2023-09-19T11:53:10;23.70;99.90
12893;DHT22;6514;48.606;9.222;2023-09-19T11:55:38;23.70;99.90
12893;DHT22;6514;48.606;9.222;2023-09-19T11:58:07;23.80;99.90
12893;DHT22;6514;48.606;9.222;2023-09-19T12:00:35;23.70;99.90
12893;DHT22;6514;48.606;9.222;2023-09-19T12:03:09;24.00;99.90
12893;DHT22;6514;48.606;9.222;2023-09-19T12:05:37;24.30;99.90
12893;DHT22;6514;48.606;9.222;2023-09-19T12:08:06;24.60;99.90
12893;DHT22;6514;48.606;9.222;2023-09-19T12:10:43;25.10;99.90
12893;DHT22;6514;48.606;9.222;2023-09-19T12:13:11;25.40;99.90
12893;DHT22;6514;48.606;9.222;2023-09-19T12:15:41;25.70;99.90
12893;DHT22;6514;48.606;9.222;2023-09-19T12:18:25;26.20;99.90
12893;DHT22;6514;48.606;9.222;2023-09-19T12:20:52;26.40;99.90
12893;DHT22;6514;48.606;9.222;2023-09-19T12:23:22;26.70;99.90
12893;DHT22;6514;48.606;9.222;2023-09-19T12:25:49;26.60;99.90
12893;DHT22;6514;48.606;9.222;2023-09-19T12:28:19;26.70;99.90
12893;DHT22;6514;48.606;9.222;2023-09-19T12:30:47;26.80;99.90
12893;DHT22;6514;48.606;9.222;2023-09-19T12:33:17;26.50;99.90
12893;DHT22;6514;48.606;9.222;2023-09-19T12:35:46;26.30;99.90
12893;DHT22;6514;48.606;9.222;2023-09-19T12:38:24;25.80;99.90
12893;DHT22;6514;48.606;9.222;2023-09-19T12:40:54;25.30;99.90
12893;DHT22;6514;48.606;9.222;2023-09-19T12:43:22;25.10;99.90
12893;DHT22;6514;48.606;9.222;2023-09-19T12:45:49;25.00;99.90
12893;DHT22;6514;48.606;9.222;2023-09-19T12:48:20;24.70;99.90
12893;DHT22;6514;48.606;9.222;2023-09-19T12:51:00;24.70;99.90
12893;DHT22;6514;48.606;9.222;2023-09-19T12:53:33;24.50;99.90
12893;DHT22;6514;48.606;9.222;2023-09-19T12:56:03;24.70;99.90
12893;DHT22;6514;48.606;9.222;2023-09-19T12:58:33;24.80;99.90
12893;DHT22;6514;48.606;9.222;2023-09-19T13:01:00;25.00;99.90
12893;DHT22;6514;48.606;9.222;2023-09-19T13:03:29;25.10;99.90
12893;DHT22;6514;48.606;9.222;2023-09-19T13:05:58;25.10;99.90
12893;DHT22;6514;48.606;9.222;2023-09-19T13:08:27;25.20;99.90
12893;DHT22;6514;48.606;9.222;2023-09-19T13:11:02;25.20;99.90
12893;DHT22;6514;48.606;9.222;2023-09-19T13:13:28;25.60;99.90
12893;DHT22;6514;48.606;9.222;2023-09-19T13:15:55;26.00;99.90
12893;DHT22;6514;48.606;9.222;2023-09-19T13:18:23;25.90;99.90
12893;DHT22;6514;48.606;9.222;2023-09-19T13:21:05;25.50;99.90
12893;DHT22;6514;48.606;9.222;2023-09-19T13:23:34;25.60;99.90
12893;DHT22;6514;48.606;9.222;2023-09-19T13:26:03;25.90;99.90
12893;DHT22;6514;48.606;9.222;2023-09-19T13:28:31;26.10;99.90
12893;DHT22;6514;48.606;9.222;2023-09-19T13:31:00;26.20;99.90
12893;DHT22;6514;48.606;9.222;2023-09-19T13:33:27;26.30;99.90
12893;DHT22;6514;48.606;9.222;2023-09-19T13:35:54;26.40;99.90
12893;DHT22;6514;48.606;9.222;2023-09-19T13:38:22;26.30;99.90
12893;DHT22;6514;48.606;9.222;2023-09-19T13:40:49;25.80;99.90
12893;DHT22;6514;48.606;9.222;2023-09-19T13:43:19;25.60;99.90
12893;DHT22;6514;48.606;9.222;2023-09-19T13:45:47;25.50;99.90
12893;DHT22;6514;48.606;9.222;2023-09-19T13:48:15;25.40;99.90
12893;DHT22;6514;48.606;9.222;2023-09-19T13:50:48;25.20;99.90
12893;DHT22;6514;48.606;9.222;2023-09-19T13:53:15;25.20;99.90
12893;DHT22;6514;48.606;9.222;2023-09-19T13:55:42;25.30;99.90
12893;DHT22;6514;48.606;9.222;2023-09-19T13:58:09;25.30;99.90
12893;DHT22;6514;48.606;9.222;2023-09-19T14:00:38;25.50;99.90
12893;DHT22;6514;48.606;9.222;2023-09-19T14:03:05;25.50;99.90
12893;DHT22;6514;48.606;9.222;2023-09-19T14:05:32;25.50;99.90
12893;DHT22;6514;48.606;9.222;2023-09-19T14:07:59;25.50;99.90
12893;DHT22;6514;48.606;9.222;2023-09-19T14:10:26;25.60;99.90
12893;DHT22;6514;48.606;9.222;2023-09-19T14:12:55;25.60;99.90
12893;DHT22;6514;48.606;9.222;2023-09-19T14:15:23;25.80;99.90
12893;DHT22;6514;48.606;9.222;2023-09-19T14:17:56;25.80;99.90
12893;DHT22;6514;48.606;9.222;2023-09-19T14:20:25;25.70;99.90
12893;DHT22;6514;48.606;9.222;2023-09-19T14:22:53;25.60;99.90
12893;DHT22;6514;48.606;9.222;2023-09-19T14:25:20;25.30;99.90
12893;DHT22;6514;48.606;9.222;2023-09-19T14:27:47;25.30;99.90
12893;DHT22;6514;48.606;9.222;2023-09-19T14:30:14;25.20;99.90
12893;DHT22;6514;48.606;9.222;2023-09-19T14:32:41;25.30;99.90
12893;DHT22;6514;48.606;9.222;2023-09-19T14:35:09;25.40;99.90
12893;DHT22;6514;48.606;9.222;2023-09-19T14:37:39;25.50;99.90
12893;DHT22;6514;48.606;9.222;2023-09-19T14:40:07;25.40;99.90
12893;DHT22;6514;48.606;9.222;2023-09-19T14:42:38;25.40;99.90
12893;DHT22;6514;48.606;9.222;2023-09-19T14:45:06;25.30;99.90
12893;DHT22;6514;48.606;9.222;2023-09-19T14:47:33;25.30;99.90
12893;DHT22;6514;48.606;9.222;2023-09-19T14:50:01;25.20;99.90
12893;DHT22;6514;48.606;9.222;2023-09-19T14:52:33;24.90;99.90
12893;DHT22;6514;48.606;9.222;2023-09-19T14:55:01;24.90;99.90
12893;DHT22;6514;48.606;9.222;2023-09-19T14:57:30;24.90;99.90
12893;DHT22;6514;48.606;9.222;2023-09-19T14:59:57;24.80;99.90
12893;DHT22;6514;48.606;9.222;2023-09-19T15:02:24;24.80;99.90
12893;DHT22;6514;48.606;9.222;2023-09-19T15:04:51;24.70;99.90
12893;DHT22;6514;48.606;9.222;2023-09-19T15:07:18;24.70;99.90
12893;DHT22;6514;48.606;9.222;2023-09-19T15:09:46;24.50;99.90
12893;DHT22;6514;48.606;9.222;2023-09-19T15:12:13;24.60;99.90
12893;DHT22;6514;48.606;9.222;2023-09-19T15:14:41;24.50;99.90
12893;DHT22;6514;48.606;9.222;2023-09-19T15:17:08;24.50;99.90
12893;DHT22;6514;48.606;9.222;2023-09-19T15:19:35;24.30;99.90
12893;DHT22;6514;48.606;9.222;2023-09-19T15:22:04;24.20;99.90
12893;DHT22;6514;48.606;9.222;2023-09-19T15:24:31;24.00;99.90
12893;DHT22;6514;48.606;9.222;2023-09-19T15:26:59;23.80;99.90
12893;DHT22;6514;48.606;9.222;2023-09-19T15:29:26;23.80;99.90
12893;DHT22;6514;48.606;9.222;2023-09-19T15:31:55;23.90;99.90
12893;DHT22;6514;48.606;9.222;2023-09-19T15:34:24;23.80;99.90
12893;DHT22;6514;48.606;9.222;2023-09-19T15:36:51;23.80;99.90
12893;DHT22;6514;48.606;9.222;2023-09-19T15:39:18;23.70;99.90
12893;DHT22;6514;48.606;9.222;2023-09-19T15:41:48;23.60;99.90
12893;DHT22;6514;48.606;9.222;2023-09-19T15:44:18;23.40;99.90
12893;DHT22;6514;48.606;9.222;2023-09-19T15:46:45;23.20;99.90
12893;DHT22;6514;48.606;9.222;2023-09-19T15:49:12;23.20;99.90
12893;DHT22;6514;48.606;9.222;2023-09-19T15:51:39;23.10;99.90
12893;DHT22;6514;48.606;9.222;2023-09-19T15:54:08;23.00;99.90
12893;DHT22;6514;48.606;9.222;2023-09-19T15:56:36;23.00;99.90
12893;DHT22;6514;48.606;9.222;2023-09-19T15:59:04;22.80;99.90
12893;DHT22;6514;48.606;9.222;2023-09-19T16:01:32;22.70;99.90
12893;DHT22;6514;48.606;9.222;2023-09-19T16:03:59;22.60;99.90
12893;DHT22;6514;48.606;9.222;2023-09-19T16:06:28;22.40;99.90
12893;DHT22;6514;48.606;9.222;2023-09-19T16:08:56;22.30;99.90
12893;DHT22;6514;48.606;9.222;2023-09-19T16:11:24;22.10;99.90
12893;DHT22;6514;48.606;9.222;2023-09-19T16:13:52;21.80;99.90
12893;DHT22;6514;48.606;9.222;2023-09-19T16:16:20;21.60;99.90